Terminal Aerodrome Forecast
Issued by NWS Charleston, WV

Current Version | Previous Version | Text Only | Print | Product List | Glossary Off
Versions: 1 2 3 4 5 6 7 8 9 10 11 12 13 14 15 16 17 18 19 20 21 22 23 24 25 26 27

000
FTUS41 KRLX 210900 AAA
TAFBKW
TAF AMD
KBKW 210948Z 2110/2206 17007KT P6SM SCT250
     FM211400 25009KT P6SM BKN025
     FM211600 26010G16KT P6SM VCTS BKN025CB
     FM211800 27011G17KT 6SM SHRA BR VCTS OVC025CB
     FM212100 26011G17KT 6SM TSRA BR BKN015CB
     FM212300 26010G15KT 6SM BR VCTS BKN025CB
     FM220100 28010KT P6SM BKN025
     FM220300 32010KT P6SM BKN025=

USA.gov is the U.S. government's official web portal to all federal, state and local government web resources and services.